Latest Weather Observations for Cobar

IDN60801

Issued at 4:32 pm EST Tuesday 25 July 2017 (issued every 30 minutes, with the page automatically refreshed every 10 minutes)

About weather observations | Map of weather stations | Latest weather observations for NSW | Other Formats
Station Details ID: 048027 Name: COBAR MO Lat: -31.48 Lon: 145.83 Height: 260.0 m
Data from the previous 72 hours. | See also: Recent months at Cobar
Date/Time
EST
Temp
°C
App
Temp
°C
Dew
Point
°C
Rel
Hum
%
Delta-T
°C
Wind Press
QNH
hPa
Press
MSL
hPa
Rain since
9am
mm
Dir  Spd
km/h
Gust
km/h
Spd
kts
Gust
kts
25/04:30pm 22.5 16.3 -3.0 18 11.0 NW 20 32 11 17 1020.0 1020.3 0.0
25/04:00pm 23.1 17.1 -3.3 17 11.4 NW 19 26 10 14 1020.1 1020.4 0.0
25/03:30pm 22.9 16.7 -3.4 17 11.3 NW 20 28 11 15 1020.6 1020.8 0.0
25/03:00pm 23.2 17.0 -3.2 17 11.4 NW 20 30 11 16 1020.9 1021.1 0.0
25/02:30pm 22.5 16.5 -3.0 18 11.0 NW 19 30 10 16 1021.2 1021.4 0.0
25/02:00pm 22.2 16.6 -3.2 18 10.8 NNW 17 28 9 15 1021.5 1021.7 0.0
25/01:30pm 21.9 16.0 -2.0 20 10.5 NNW 19 28 10 15 1021.8 1022.0 0.0
25/01:00pm 21.2 15.4 -1.3 22 9.9 N 19 30 10 16 1022.3 1022.5 0.0
25/12:30pm 20.9 15.3 0.2 25 9.4 N 19 32 10 17 1023.0 1023.3 0.0
25/12:00pm 20.2 15.4 0.1 26 9.0 N 15 24 8 13 1023.7 1024.0 0.0
25/11:30am 19.8 15.0 0.3 27 8.8 N 15 24 8 13 1024.1 1024.4 0.0
25/11:00am 19.0 14.6 0.6 29 8.2 N 13 17 7 9 1024.7 1024.9 0.0
25/10:30am 17.6 12.4 -0.2 30 7.8 NNE 17 22 9 12 1025.0 1025.2 0.0
25/10:00am 16.6 11.1 0.3 33 7.1 NNE 19 28 10 15 1025.2 1025.4 0.0
25/09:30am 15.1 9.5 0.2 36 6.4 NNE 19 24 10 13 1025.1 1025.3 0.0
25/09:00am 13.4 8.7 0.8 42 5.4 NNE 15 19 8 10 1025.1 1025.3 0.0
25/08:30am 11.7 7.4 0.8 47 4.6 NNE 13 19 7 10 1024.7 1024.9 0.0
25/08:00am 10.1 5.7 0.4 51 4.0 NE 13 17 7 9 1024.6 1024.8 0.0
25/07:30am 8.1 3.7 0.6 59 3.0 NE 13 15 7 8 1024.4 1024.6 0.0
25/07:00am 7.7 3.8 0.9 62 2.8 NE 11 13 6 7 1024.1 1024.4 0.0
25/06:30am 7.7 3.7 0.7 61 2.8 ENE 11 13 6 7 1023.7 1024.0 0.0
25/06:00am 7.2 3.2 0.6 63 2.6 NE 11 13 6 7 1023.4 1023.7 0.0
25/05:30am 7.8 3.8 0.5 60 2.9 ENE 11 13 6 7 1023.0 1023.3 0.0
25/05:00am 7.9 3.9 0.2 58 3.1 E 11 13 6 7 1022.7 1023.0 0.0
25/04:30am 7.7 3.7 0.2 59 3.0 ENE 11 11 6 6 1022.6 1022.9 0.0
25/04:00am 7.0 2.9 -0.4 59 2.9 E 11 13 6 7 1022.7 1023.0 0.0
25/03:30am 7.7 3.6 0.0 58 3.1 E 11 13 6 7 1022.6 1022.9 0.0
25/03:00am 8.7 5.0 0.2 55 3.4 E 9 11 5 6 1022.6 1022.9 0.0
25/02:30am 8.4 4.7 0.1 56 3.3 E 9 11 5 6 1022.8 1023.1 0.0
25/02:00am 8.4 4.8 0.4 57 3.2 ESE 9 11 5 6 1023.0 1023.3 0.0
25/01:30am 9.2 6.9 0.6 55 3.5 S 2 7 1 4 1023.1 1023.4 0.0
25/01:00am 9.0 6.4 0.7 56 3.4 WSW 4 6 2 3 1022.9 1023.2 0.0
25/12:30am 8.8 5.7 0.0 54 3.5 WSW 6 7 3 4 1023.1 1023.4 0.0
25/12:00am 9.3 6.2 0.2 53 3.7 W 6 7 3 4 1023.3 1023.6 0.0
 
Date/Time
EST
Temp
°C
App
Temp
°C
Dew
Point
°C
Rel
Hum
%
Delta-T
°C
Wind Press
QNH
hPa
Press
MSL
hPa
Rain since
9am
mm
Dir  Spd
km/h
Gust
km/h
Spd
kts
Gust
kts
24/11:30pm 10.6 7.3 0.3 49 4.3 WNW 7 9 4 5 1023.5 1023.8 0.0
24/11:00pm 10.5 7.0 1.1 52 3.9 WNW 9 11 5 6 1023.5 1023.8 0.0
24/10:30pm 9.7 7.1 1.1 55 3.6 NW 4 7 2 4 1023.5 1023.8 0.0
24/10:00pm 9.4 5.8 0.8 55 3.5 WNW 9 11 5 6 1023.4 1023.7 0.0
24/09:30pm 8.4 5.6 -0.4 54 3.5 SW 4 19 2 10 1023.4 1023.7 0.0
24/09:00pm 11.1 9.2 0.8 49 4.3 CALM 0 2 0 1 1023.3 1023.6 0.0
24/08:30pm 11.3 8.3 0.7 48 4.5 SSW 6 6 3 3 1023.2 1023.5 0.0
24/08:00pm 11.6 8.6 0.7 47 4.6 SSW 6 7 3 4 1023.1 1023.4 0.0
24/07:30pm 13.1 10.1 0.5 42 5.4 SSW 6 7 3 4 1022.8 1023.1 0.0
24/07:00pm 14.9 11.9 1.1 39 6.0 SSW 6 7 3 4 1022.5 1022.8 0.0
24/06:30pm 14.4 11.5 1.3 41 5.7 SSW 6 7 3 4 1022.2 1022.4 0.0
24/06:00pm 15.4 12.4 0.8 37 6.4 SSW 6 7 3 4 1021.9 1022.1 0.0
24/05:30pm 16.9 13.9 1.0 34 7.1 SSW 6 9 3 5 1021.8 1022.0 0.0
24/05:00pm 17.6 14.4 0.7 32 7.5 SW 7 11 4 6 1021.7 1021.9 0.0
24/04:30pm 18.5 14.0 -0.3 28 8.3 SW 13 20 7 11 1021.7 1021.9 0.0
24/04:00pm 19.1 15.1 0.2 28 8.4 WNW 11 15 6 8 1021.9 1022.1 0.0
24/03:30pm 19.1 13.9 0.2 28 8.4 WSW 17 22 9 12 1022.1 1022.3 0.0
24/03:00pm 19.3 14.8 -0.1 27 8.6 W 13 19 7 10 1022.1 1022.3 0.0
24/02:30pm 19.6 15.6 0.6 28 8.6 W 11 20 6 11 1022.2 1022.4 0.0
24/02:00pm 19.1 14.8 0.7 29 8.3 WNW 13 19 7 10 1022.2 1022.4 0.0
24/01:30pm 18.3 14.4 0.9 31 7.8 WSW 11 22 6 12 1022.4 1022.6 0.0
24/01:00pm 18.5 14.7 1.5 32 7.7 W 11 19 6 10 1022.9 1023.2 0.0
24/12:30pm 17.9 13.7 1.8 34 7.3 SW 13 20 7 11 1023.2 1023.5 0.0
24/12:00pm 17.6 14.4 2.8 37 6.8 W 9 15 5 8 1023.6 1023.9 0.0
24/11:30am 16.4 13.5 2.8 40 6.3 S 7 15 4 8 1024.2 1024.5 0.0
24/11:00am 16.2 13.5 3.9 44 5.8 WSW 7 13 4 7 1024.4 1024.6 0.0
24/10:30am 16.3 13.8 5.0 47 5.4 S 7 13 4 7 1024.5 1024.7 0.0
24/10:00am 14.8 12.2 4.2 49 4.9 S 7 11 4 6 1024.6 1024.8 0.0
24/09:30am 13.5 11.3 3.3 50 4.6 SSW 4 6 2 3 1024.2 1024.5 0.0
24/09:00am 11.0 8.1 1.5 52 4.0 SSW 6 7 3 4 1024.4 1024.6 0.0
24/08:30am 8.4 5.7 0.1 56 3.3 SSW 4 6 2 3 1023.7 1024.0 0.0
24/08:00am 6.7 3.2 -1.2 57 3.0 S 7 9 4 5 1023.2 1023.5 0.0
24/07:30am 6.2 2.0 -0.7 61 2.7 SSW 11 13 6 7 1022.9 1023.2 0.0
24/07:00am 6.4 2.2 -1.0 59 2.8 SW 11 13 6 7 1022.7 1023.0 0.0
24/06:30am 7.2 3.4 -0.5 58 3.0 SSW 9 11 5 6 1022.3 1022.5 0.0
24/06:00am 6.8 3.4 -0.6 59 2.9 SSW 7 11 4 6 1021.8 1022.0 0.0
24/05:30am 7.3 3.5 -0.6 57 3.1 SW 9 11 5 6 1021.4 1021.6 0.0
24/05:00am 7.0 3.2 -0.9 57 3.0 SSW 9 9 5 5 1021.1 1021.3 0.0
24/04:30am 6.6 3.0 -2.0 54 3.2 SSW 7 9 4 5 1020.9 1021.1 0.0
24/04:00am 8.0 4.2 -1.0 53 3.5 SSW 9 11 5 6 1020.7 1020.9 0.0
24/03:30am 8.2 4.3 -1.3 51 3.7 SW 9 9 5 5 1020.6 1020.8 0.0
24/03:00am 8.7 4.8 -1.7 48 4.0 SW 9 11 5 6 1020.7 1020.9 0.0
24/02:30am 9.1 5.1 -2.2 45 4.3 SW 9 11 5 6 1020.6 1020.8 0.0
24/02:00am 9.8 5.8 -2.2 43 4.6 SW 9 11 5 6 1020.6 1020.8 0.0
24/01:30am 10.0 6.3 -2.6 41 4.8 SW 7 9 4 5 1020.5 1020.7 0.0
24/01:00am 10.7 7.0 -2.7 39 5.2 WSW 7 9 4 5 1020.4 1020.6 0.0
24/12:30am 10.5 6.3 -3.9 36 5.4 W 9 11 5 6 1020.2 1020.5 0.0
24/12:00am 11.0 6.4 -3.8 35 5.6 WNW 11 13 6 7 1020.2 1020.5 0.0
 
Date/Time
EST
Temp
°C
App
Temp
°C
Dew
Point
°C
Rel
Hum
%
Delta-T
°C
Wind Press
QNH
hPa
Press
MSL
hPa
Rain since
9am
mm
Dir  Spd
km/h
Gust
km/h
Spd
kts
Gust
kts
23/11:30pm 11.3 6.7 -4.4 33 5.9 NW 11 15 6 8 1020.2 1020.5 0.0
23/11:00pm 12.4 7.4 -4.7 30 6.4 NW 13 15 7 8 1020.1 1020.4 0.0
23/10:30pm 13.4 8.4 -4.2 29 6.8 NW 13 17 7 9 1019.9 1020.2 0.0
23/10:00pm 14.0 8.6 -4.7 27 7.1 NW 15 22 8 12 1019.5 1019.8 0.0
23/09:30pm 14.7 8.9 -4.6 26 7.5 NNW 17 20 9 11 1019.3 1019.6 0.0
23/09:00pm 14.9 9.5 -4.9 25 7.6 NNW 15 19 8 10 1019.1 1019.3 0.0
23/08:30pm 14.6 9.2 -4.2 27 7.3 NNW 15 17 8 9 1018.8 1019.0 0.0
23/08:00pm 14.4 9.4 -4.3 27 7.2 N 13 17 7 9 1018.6 1018.8 0.0
23/07:30pm 14.2 9.2 -4.0 28 7.1 N 13 17 7 9 1018.5 1018.7 0.0
23/07:00pm 14.6 10.0 -3.7 28 7.2 N 11 15 6 8 1018.4 1018.6 0.0
23/06:30pm 15.3 11.1 -4.1 26 7.6 NW 9 11 5 6 1018.2 1018.4 0.0
23/06:00pm 16.6 12.0 -4.0 24 8.2 NW 11 13 6 7 1017.9 1018.1 0.0
23/05:30pm 18.9 13.9 -3.9 21 9.3 NW 13 19 7 10 1017.6 1017.8 0.0
23/05:00pm 20.4 14.7 -4.0 19 10.1 NW 17 24 9 13 1017.5 1017.7 0.0
23/04:30pm 21.4 15.2 -4.6 17 10.8 NW 19 28 10 15 1017.5 1017.7 0.0
23/04:00pm 21.7 15.4 -4.4 17 10.9 NW 20 32 11 17 1017.4 1017.6 0.0
23/03:30pm 22.0 16.2 -4.9 16 11.1 NW 17 30 9 16 1017.5 1017.7 0.0
23/03:00pm 21.9 16.0 -5.9 15 11.3 NW 17 24 9 13 1017.6 1017.8 0.0
23/02:30pm 21.8 16.0 -5.1 16 11.1 NNW 17 24 9 13 1017.8 1018.0 0.0
23/02:00pm 21.5 15.7 -4.5 17 10.8 NW 17 24 9 13 1017.9 1018.1 0.0
23/01:30pm 20.9 15.1 -5.0 17 10.6 NW 17 24 9 13 1018.4 1018.6 0.0
23/01:00pm 19.6 14.2 -4.6 19 9.8 NW 15 22 8 12 1019.2 1019.4 0.0
23/12:30pm 18.9 13.0 -5.2 19 9.6 NNW 17 28 9 15 1019.9 1020.2 0.0
23/12:00pm 18.0 11.8 -4.6 21 9.0 NW 19 26 10 14 1020.6 1020.8 0.0
23/11:30am 17.7 11.9 -4.9 21 9.0 NW 17 26 9 14 1021.2 1021.4 0.0
23/11:00am 17.5 12.1 -4.4 22 8.7 NW 15 20 8 11 1021.6 1021.8 0.0
23/10:30am 17.0 10.9 -4.3 23 8.5 NNW 19 26 10 14 1021.5 1021.7 0.0
23/10:00am 15.1 8.9 -4.8 25 7.7 NNW 19 26 10 14 1021.7 1021.9 0.0
23/09:30am 13.6 7.4 -5.0 27 7.0 N 19 26 10 14 1021.6 1021.8 0.0
23/09:00am 12.3 6.4 -5.2 29 6.5 NNW 17 28 9 15 1021.6 1021.8 0.0
23/08:30am 9.1 4.0 -5.5 35 5.2 N 13 19 7 10 1021.6 1021.8 0.0
23/08:00am 7.7 2.2 -5.0 40 4.5 N 15 19 8 10 1021.4 1021.6 0.0
23/07:30am 5.6 0.5 -5.4 45 3.7 N 13 15 7 8 1021.2 1021.4 0.0
23/07:00am 4.3 -0.8 -5.5 49 3.2 N 13 15 7 8 1020.6 1020.8 0.0
23/06:30am 3.8 -1.3 -5.6 50 3.1 N 13 13 7 7 1020.2 1020.5 0.0
23/06:00am 4.6 -0.1 -5.4 48 3.3 N 11 13 6 7 1020.0 1020.3 0.0
23/05:30am 5.9 0.4 -5.1 45 3.8 N 15 19 8 10 1019.4 1019.7 0.0
23/05:00am 6.2 0.8 -4.8 45 3.8 N 15 17 8 9 1019.4 1019.7 0.0
23/04:30am 6.1 1.0 -4.9 45 3.8 N 13 15 7 8 1019.6 1019.9 0.0
23/04:00am 6.2 1.2 -4.3 47 3.7 N 13 15 7 8 1019.8 1020.1 0.0
23/03:30am 5.5 0.4 -4.9 47 3.6 N 13 13 7 7 1020.2 1020.5 0.0
23/03:00am 5.4 0.3 -5.0 47 3.5 N 13 15 7 8 1020.2 1020.5 0.0
23/02:30am 5.3 0.2 -5.4 46 3.6 N 13 15 7 8 1020.1 1020.4 0.0
23/02:00am 5.0 -0.1 -5.6 46 3.5 N 13 15 7 8 1020.2 1020.5 0.0
23/01:30am 5.6 0.9 -5.4 45 3.7 N 11 13 6 7 1020.4 1020.6 0.0
23/01:00am 6.4 1.7 -4.9 44 3.9 N 11 15 6 8 1020.5 1020.7 0.0
23/12:30am 7.1 2.0 -4.9 42 4.2 N 13 15 7 8 1020.8 1021.0 0.0
23/12:00am 6.4 1.6 -5.6 42 4.1 NNW 11 13 6 7 1021.4 1021.6 0.0
 
Date/Time
EST
Temp
°C
App
Temp
°C
Dew
Point
°C
Rel
Hum
%
Delta-T
°C
Wind Press
QNH
hPa
Press
MSL
hPa
Rain since
9am
mm
Dir  Spd
km/h
Gust
km/h
Spd
kts
Gust
kts
22/11:30pm 6.1 1.3 -6.1 41 4.1 NNW 11 13 6 7 1021.5 1021.7 0.0
22/11:00pm 6.6 1.4 -6.7 38 4.4 NNW 13 15 7 8 1021.8 1022.0 0.0
22/10:30pm 7.6 2.3 -6.9 35 4.9 NNW 13 15 7 8 1021.7 1021.9 0.0
22/10:00pm 7.6 2.7 -6.9 35 4.9 NW 11 11 6 6 1021.6 1021.8 0.0
22/09:30pm 8.0 3.5 -6.9 34 5.0 N 9 11 5 6 1021.5 1021.7 0.0
22/09:00pm 8.6 4.1 -6.7 33 5.2 N 9 11 5 6 1021.1 1021.3 0.0
22/08:30pm 9.2 4.3 -6.6 32 5.5 NNE 11 13 6 7 1020.8 1021.0 0.0
22/08:00pm 9.8 5.0 -6.5 31 5.7 NNE 11 13 6 7 1020.8 1021.0 0.0
22/07:30pm 10.3 5.1 -6.5 30 5.9 NNE 13 13 7 7 1020.6 1020.8 0.0
22/07:00pm 11.0 6.2 -6.3 29 6.1 NNE 11 13 6 7 1020.5 1020.7 0.0
22/06:30pm 11.9 7.5 -6.0 28 6.5 NNE 9 11 5 6 1020.4 1020.6 0.0
22/06:00pm 12.8 8.7 -6.2 26 6.9 NNE 7 9 4 5 1020.1 1020.4 0.0
22/05:30pm 14.5 10.6 -6.4 23 7.7 N 6 7 3 4 1020.0 1020.3 0.0
22/05:00pm 15.7 12.2 -6.5 21 8.3 NNW 4 9 2 5 1020.0 1020.3 0.0

Other Formats:

Comma delimited format used in spreadsheet applications
http://www.bom.gov.au/fwo/IDN60801/IDN60801.94711.axf

JavaScript Object Notation format (JSON) in row-major order
http://www.bom.gov.au/fwo/IDN60801/IDN60801.94711.json